Aviation Digital Data Service (ADDS)

Output produced by METARs form (2117 UTC 24 October 2014)
found at http://www.aviationweather.gov/adds/metars/
 
KFIG 242054Z AUTO 28009KT 10SM CLR 15/02 A2995 RMK AO2 SLP143 T01500017 56009
KFIG 241954Z AUTO 27010KT 10SM CLR 16/02 A2996 RMK AO2 SLP145 T01610022
KFIG 241854Z AUTO 28008G17KT 10SM CLR 16/03 A2997 RMK AO2 SLP148 T01560028
KFIG 241754Z AUTO 30008KT 10SM CLR 15/02 A2998 RMK AO2 SLP153 T01500022 10150 20067 58017
KFIG 241654Z AUTO 29008KT 10SM CLR 13/02 A3001 RMK AO2 SLP164 T01330022
KFIG 241554Z AUTO 30009KT 10SM CLR 13/04 A3003 RMK AO2 SLP171 T01330039
KFIG 241454Z AUTO 30007KT 10SM CLR 12/03 A3003 RMK AO2 SLP172 T01170028 58001
KFIG 241354Z AUTO VRB03KT 10SM CLR 10/04 A3004 RMK AO2 SLP176 T01000044
KFIG 241254Z AUTO 28006KT 10SM FEW020 08/04 A3004 RMK AO2 SLP177 T00830039
KFIG 241238Z AUTO 26005KT 10SM SCT020 08/04 A3005 RMK AO2 T00780044
KFIG 241154Z AUTO VRB04KT 10SM BKN017 07/04 A3003 RMK AO2 SLP175 T00720044 10083 20056 53003
KFIG 241130Z AUTO 27005KT 10SM OVC015 07/04 A3003 RMK AO2 T00720044
KFIG 241054Z AUTO 33011G19KT 10SM BKN014 07/04 A3003 RMK AO2 SLP172 T00720044
KFIG 241038Z AUTO 30005KT 10SM BKN014 07/05 A3003 RMK AO2 T00720050
KFIG 240954Z AUTO 21003KT 10SM CLR 06/04 A3002 RMK AO2 SLP170 T00560039
KFIG 240854Z AUTO 25003KT 10SM CLR 08/04 A3003 RMK AO2 SLP169 T00780044 53012
KFIG 240754Z AUTO VRB04KT 10SM CLR 08/05 A3001 RMK AO2 SLP162 T00780050
KFIG 240654Z AUTO 27005KT 10SM FEW044 08/06 A3000 RMK AO2 SLP161 T00780056
KFIG 240554Z AUTO VRB04KT 10SM CLR 08/06 A2999 RMK AO2 SLP156 T00780056 10111 20067 58008
KFIG 240454Z AUTO VRB03KT 10SM CLR 07/06 A3000 RMK AO2 SLP161 T00720056 401720061
KFIG 240354Z AUTO 30008KT 10SM CLR 09/06 A3000 RMK AO2 SLP164 T00890056
KFIG 240254Z AUTO VRB04KT 10SM CLR 09/04 A3001 RMK AO2 SLP167 T00890044 50002
KFIG 240154Z AUTO 30006KT 10SM CLR 10/04 A3002 RMK AO2 SLP169 T01000039
KFIG 240054Z AUTO 32009G15KT 10SM CLR 10/03 A3001 RMK AO2 SLP165 T01000033
KFIG 232354Z AUTO 32011G20KT 10SM CLR 11/03 A3001 RMK AO2 SLP165 T01110028 10172 20111 53014
KFIG 232254Z AUTO 32011G18KT 10SM CLR 12/03 A2999 RMK AO2 SLP159 T01220028
KFIG 232154Z AUTO 33014G21KT 10SM CLR 14/03 A2997 RMK AO2 SLP150 T01390033
KFIG 232054Z AUTO 32013G22KT 10SM OVC055 16/04 A2996 RMK AO2 SLP147 T01560039 56003
KFIG 231954Z AUTO 34009G22KT 10SM OVC050 16/04 A2996 RMK AO2 PK WND 01026/1926 SLP148 T01560039
KFIG 231854Z AUTO 33020G25KT 10SM BKN050 17/04 A2996 RMK AO2 PK WND 02028/1758 SLP147 T01670039
KFIG 231754Z AUTO 35018G29KT 10SM CLR 16/04 A2997 RMK AO2 PK WND 33029/1745 SLP151 T01560039 10156 20067 58018
KFIG 231654Z AUTO 33010G16KT 10SM CLR 15/05 A3000 RMK AO2 SLP159 T01500050
KFIG 231615Z AUTO 33013G18KT 10SM SCT026 SCT031 12/05 A3002 RMK AO2 T01220050
KFIG 231554Z AUTO 33009KT 10SM BKN024 11/05 A3003 RMK AO2 SLP175 T01060050
KFIG 231454Z AUTO 32012G20KT 10SM OVC021 10/05 A3003 RMK AO2 SLP173 T01000050 57004
KFIG 231354Z AUTO 34012G16KT 10SM BKN021 09/04 A3003 RMK AO2 SLP174 T00890044
KFIG 231335Z AUTO 33011G20KT 10SM SCT018 08/04 A3003 RMK AO2 T00830044
KFIG 231254Z AUTO 33010KT 10SM OVC018 08/04 A3004 RMK AO2 SLP179 T00780039
KFIG 231154Z AUTO 33008KT 10SM OVC019 07/03 A3004 RMK AO2 SLP179 T00670033 10078 20061 50004
KFIG 231054Z AUTO 33008KT 10SM BKN021 07/03 A3005 RMK AO2 SLP181 T00670033
KFIG 230954Z AUTO 33007KT 10SM OVC070 07/03 A3003 RMK AO2 SLP176 T00720033
KFIG 230940Z AUTO 34010KT 10SM SCT021 OVC070 08/04 A3003 RMK AO2 T00780039